sensor_id;sensor_type;location;lat;lon;timestamp;pressure;altitude;pressure_sealevel;temperature;humidity
41703;BME280;861;48.808;9.006;2023-07-29T00:01:27;96693.75;;;19.17;92.14
41703;BME280;861;48.808;9.006;2023-07-29T00:03:53;96690.72;;;19.24;91.32
41703;BME280;861;48.808;9.006;2023-07-29T00:06:20;96693.63;;;19.21;91.74
41703;BME280;861;48.808;9.006;2023-07-29T00:08:46;96689.66;;;19.22;92.28
41703;BME280;861;48.808;9.006;2023-07-29T00:11:13;96678.78;;;19.27;91.25
41703;BME280;861;48.808;9.006;2023-07-29T00:13:39;96676.91;;;19.24;92.03
41703;BME280;861;48.808;9.006;2023-07-29T00:16:06;96690.19;;;19.29;91.75
41703;BME280;861;48.808;9.006;2023-07-29T00:18:33;96676.91;;;19.24;92.14
41703;BME280;861;48.808;9.006;2023-07-29T00:20:59;96691.38;;;19.07;93.22
41703;BME280;861;48.808;9.006;2023-07-29T00:23:26;96695.88;;;18.92;94.39
41703;BME280;861;48.808;9.006;2023-07-29T00:25:52;96690.84;;;18.78;95.12
41703;BME280;861;48.808;9.006;2023-07-29T00:28:19;96692.59;;;18.84;94.94
41703;BME280;861;48.808;9.006;2023-07-29T00:30:45;96689.88;;;18.72;96.12
41703;BME280;861;48.808;9.006;2023-07-29T00:33:12;96693.38;;;18.72;96.14
41703;BME280;861;48.808;9.006;2023-07-29T00:35:38;96685.00;;;18.76;96.30
41703;BME280;861;48.808;9.006;2023-07-29T00:38:05;96682.75;;;18.83;95.70
41703;BME280;861;48.808;9.006;2023-07-29T00:40:36;96692.16;;;18.86;95.46
41703;BME280;861;48.808;9.006;2023-07-29T00:43:03;96679.75;;;18.90;95.13
41703;BME280;861;48.808;9.006;2023-07-29T00:45:31;96679.25;;;18.83;95.88
41703;BME280;861;48.808;9.006;2023-07-29T00:48:00;96687.00;;;18.97;94.88
41703;BME280;861;48.808;9.006;2023-07-29T00:50:31;96682.56;;;18.78;96.68
41703;BME280;861;48.808;9.006;2023-07-29T00:52:58;96682.13;;;18.79;96.46
41703;BME280;861;48.808;9.006;2023-07-29T00:55:25;96681.34;;;18.79;97.05
41703;BME280;861;48.808;9.006;2023-07-29T00:57:53;96678.06;;;18.71;97.86
41703;BME280;861;48.808;9.006;2023-07-29T01:00:21;96674.09;;;18.72;97.76
41703;BME280;861;48.808;9.006;2023-07-29T01:02:48;96661.34;;;18.66;98.48
41703;BME280;861;48.808;9.006;2023-07-29T01:05:17;96661.97;;;18.70;98.65
41703;BME280;861;48.808;9.006;2023-07-29T01:08:14;96662.38;;;18.81;98.36
41703;BME280;861;48.808;9.006;2023-07-29T01:11:20;96666.09;;;18.87;97.34
41703;BME280;861;48.808;9.006;2023-07-29T01:14:28;96664.28;;;18.93;97.10
41703;BME280;861;48.808;9.006;2023-07-29T01:17:09;96661.06;;;18.94;96.71
41703;BME280;861;48.808;9.006;2023-07-29T01:20:09;96654.34;;;18.95;96.64
41703;BME280;861;48.808;9.006;2023-07-29T01:22:47;96656.59;;;18.88;96.78
41703;BME280;861;48.808;9.006;2023-07-29T01:25:14;96655.69;;;18.91;97.14
41703;BME280;861;48.808;9.006;2023-07-29T01:27:45;96657.69;;;18.90;97.43
41703;BME280;861;48.808;9.006;2023-07-29T01:30:14;96647.28;;;18.94;97.00
41703;BME280;861;48.808;9.006;2023-07-29T01:33:00;96665.97;;;18.90;97.66
41703;BME280;861;48.808;9.006;2023-07-29T01:36:01;96655.56;;;18.94;97.56
41703;BME280;861;48.808;9.006;2023-07-29T01:38:40;96662.81;;;19.01;97.03
41703;BME280;861;48.808;9.006;2023-07-29T01:41:09;96659.09;;;18.95;97.15
41703;BME280;861;48.808;9.006;2023-07-29T01:43:38;96653.84;;;19.09;96.58
41703;BME280;861;48.808;9.006;2023-07-29T01:46:15;96648.19;;;19.13;96.23
41703;BME280;861;48.808;9.006;2023-07-29T01:48:42;96652.03;;;19.15;95.29
41703;BME280;861;48.808;9.006;2023-07-29T01:51:11;96644.44;;;19.07;96.48
41703;BME280;861;48.808;9.006;2023-07-29T01:53:38;96633.09;;;19.05;96.26
41703;BME280;861;48.808;9.006;2023-07-29T01:56:05;96637.72;;;19.08;96.28
41703;BME280;861;48.808;9.006;2023-07-29T01:58:32;96633.09;;;19.05;96.04
41703;BME280;861;48.808;9.006;2023-07-29T02:00:58;96634.31;;;19.04;95.78
41703;BME280;861;48.808;9.006;2023-07-29T02:03:25;96637.72;;;19.08;95.45
41703;BME280;861;48.808;9.006;2023-07-29T02:05:51;96635.31;;;19.40;93.05
41703;BME280;861;48.808;9.006;2023-07-29T02:08:18;96627.63;;;19.14;94.16
41703;BME280;861;48.808;9.006;2023-07-29T02:10:44;96625.31;;;19.12;94.01
41703;BME280;861;48.808;9.006;2023-07-29T02:13:13;96625.50;;;19.18;93.61
41703;BME280;861;48.808;9.006;2023-07-29T02:15:39;96622.38;;;19.07;95.10
41703;BME280;861;48.808;9.006;2023-07-29T02:18:06;96632.22;;;19.08;94.41
41703;BME280;861;48.808;9.006;2023-07-29T02:20:33;96624.56;;;18.90;95.84
41703;BME280;861;48.808;9.006;2023-07-29T02:23:00;96622.44;;;18.94;95.82
41703;BME280;861;48.808;9.006;2023-07-29T02:25:26;96625.19;;;18.94;95.61
41703;BME280;861;48.808;9.006;2023-07-29T02:27:53;96629.06;;;18.97;95.34
41703;BME280;861;48.808;9.006;2023-07-29T02:30:23;96627.44;;;18.87;95.37
41703;BME280;861;48.808;9.006;2023-07-29T02:32:49;96618.84;;;18.85;95.94
41703;BME280;861;48.808;9.006;2023-07-29T02:35:16;96623.13;;;18.77;95.86
41703;BME280;861;48.808;9.006;2023-07-29T02:37:42;96616.81;;;18.76;96.11
41703;BME280;861;48.808;9.006;2023-07-29T02:40:09;96612.59;;;18.84;95.99
41703;BME280;861;48.808;9.006;2023-07-29T02:42:37;96619.91;;;18.78;96.38
41703;BME280;861;48.808;9.006;2023-07-29T02:45:05;96625.59;;;18.84;96.10
41703;BME280;861;48.808;9.006;2023-07-29T02:47:36;96629.38;;;18.77;96.34
41703;BME280;861;48.808;9.006;2023-07-29T02:50:04;96633.03;;;18.74;96.44
41703;BME280;861;48.808;9.006;2023-07-29T02:52:31;96624.97;;;18.80;96.39
41703;BME280;861;48.808;9.006;2023-07-29T02:54:57;96621.25;;;18.95;95.10
41703;BME280;861;48.808;9.006;2023-07-29T02:57:24;96618.41;;;18.86;95.19
41703;BME280;861;48.808;9.006;2023-07-29T02:59:50;96603.94;;;19.04;94.61
41703;BME280;861;48.808;9.006;2023-07-29T03:02:17;96597.28;;;19.14;93.47
41703;BME280;861;48.808;9.006;2023-07-29T03:04:43;96603.56;;;18.93;94.14
41703;BME280;861;48.808;9.006;2023-07-29T03:07:10;96595.00;;;18.91;95.04
41703;BME280;861;48.808;9.006;2023-07-29T03:09:37;96597.53;;;19.07;93.80
41703;BME280;861;48.808;9.006;2023-07-29T03:12:03;96596.69;;;19.19;92.90
41703;BME280;861;48.808;9.006;2023-07-29T03:14:30;96594.97;;;19.12;92.23
41703;BME280;861;48.808;9.006;2023-07-29T03:16:57;96580.81;;;19.01;93.40
41703;BME280;861;48.808;9.006;2023-07-29T03:19:24;96588.13;;;18.95;93.97
41703;BME280;861;48.808;9.006;2023-07-29T03:21:50;96593.38;;;19.02;93.76
41703;BME280;861;48.808;9.006;2023-07-29T03:24:17;96585.41;;;19.04;93.05
41703;BME280;861;48.808;9.006;2023-07-29T03:26:43;96591.06;;;19.01;93.38
41703;BME280;861;48.808;9.006;2023-07-29T03:29:10;96588.03;;;19.08;93.71
41703;BME280;861;48.808;9.006;2023-07-29T03:31:36;96589.66;;;18.96;94.15
41703;BME280;861;48.808;9.006;2023-07-29T03:34:03;96588.38;;;18.88;95.33
41703;BME280;861;48.808;9.006;2023-07-29T03:36:30;96586.66;;;18.82;95.49
41703;BME280;861;48.808;9.006;2023-07-29T03:38:56;96584.41;;;18.89;95.08
41703;BME280;861;48.808;9.006;2023-07-29T03:41:26;96582.91;;;18.97;94.49
41703;BME280;861;48.808;9.006;2023-07-29T03:43:53;96580.31;;;18.94;94.89
41703;BME280;861;48.808;9.006;2023-07-29T03:46:20;96581.44;;;18.84;95.51
41703;BME280;861;48.808;9.006;2023-07-29T03:48:48;96590.50;;;18.84;95.61
41703;BME280;861;48.808;9.006;2023-07-29T03:51:15;96582.41;;;18.90;95.18
41703;BME280;861;48.808;9.006;2023-07-29T03:53:41;96597.06;;;18.78;96.48
41703;BME280;861;48.808;9.006;2023-07-29T03:56:08;96577.94;;;18.62;98.21
41703;BME280;861;48.808;9.006;2023-07-29T03:58:35;96583.13;;;18.38;100.00
41703;BME280;861;48.808;9.006;2023-07-29T04:01:01;96573.94;;;18.63;98.87
41703;BME280;861;48.808;9.006;2023-07-29T04:03:28;96578.31;;;18.73;97.84
41703;BME280;861;48.808;9.006;2023-07-29T04:05:55;96579.34;;;18.66;97.81
41703;BME280;861;48.808;9.006;2023-07-29T04:08:21;96572.88;;;18.60;98.59
41703;BME280;861;48.808;9.006;2023-07-29T04:10:49;96577.81;;;18.65;98.99
41703;BME280;861;48.808;9.006;2023-07-29T04:13:15;96571.78;;;18.58;99.62
41703;BME280;861;48.808;9.006;2023-07-29T04:15:42;96569.78;;;18.58;99.12
41703;BME280;861;48.808;9.006;2023-07-29T04:18:08;96584.72;;;18.48;100.00
41703;BME280;861;48.808;9.006;2023-07-29T04:20:35;96590.63;;;18.59;100.00
41703;BME280;861;48.808;9.006;2023-07-29T04:23:01;96602.19;;;18.45;100.00
41703;BME280;861;48.808;9.006;2023-07-29T04:25:28;96596.53;;;18.36;100.00
41703;BME280;861;48.808;9.006;2023-07-29T04:27:55;96587.69;;;18.19;100.00
41703;BME280;861;48.808;9.006;2023-07-29T04:30:24;96588.19;;;18.40;100.00
41703;BME280;861;48.808;9.006;2023-07-29T04:32:50;96600.94;;;18.12;100.00
41703;BME280;861;48.808;9.006;2023-07-29T04:35:17;96607.19;;;18.12;100.00
41703;BME280;861;48.808;9.006;2023-07-29T04:37:43;96614.13;;;18.17;100.00
41703;BME280;861;48.808;9.006;2023-07-29T04:40:10;96616.66;;;18.24;100.00
41703;BME280;861;48.808;9.006;2023-07-29T04:42:37;96608.84;;;18.22;100.00
41703;BME280;861;48.808;9.006;2023-07-29T04:45:05;96614.50;;;18.06;100.00
41703;BME280;861;48.808;9.006;2023-07-29T04:47:31;96620.38;;;17.96;100.00
41703;BME280;861;48.808;9.006;2023-07-29T04:49:58;96604.91;;;17.98;100.00
41703;BME280;861;48.808;9.006;2023-07-29T04:52:25;96594.56;;;18.37;100.00
41703;BME280;861;48.808;9.006;2023-07-29T04:54:51;96585.63;;;18.45;100.00
41703;BME280;861;48.808;9.006;2023-07-29T04:57:18;96576.91;;;18.47;100.00
41703;BME280;861;48.808;9.006;2023-07-29T04:59:44;96596.97;;;18.47;100.00
41703;BME280;861;48.808;9.006;2023-07-29T05:02:11;96583.84;;;18.73;100.00
41703;BME280;861;48.808;9.006;2023-07-29T05:04:38;96588.97;;;18.62;100.00
41703;BME280;861;48.808;9.006;2023-07-29T05:07:05;96580.13;;;18.67;100.00
41703;BME280;861;48.808;9.006;2023-07-29T05:09:31;96582.59;;;18.74;100.00
41703;BME280;861;48.808;9.006;2023-07-29T05:11:58;96571.50;;;18.86;99.94
41703;BME280;861;48.808;9.006;2023-07-29T05:14:24;96572.03;;;18.72;100.00
41703;BME280;861;48.808;9.006;2023-07-29T05:16:51;96562.72;;;18.79;100.00
41703;BME280;861;48.808;9.006;2023-07-29T05:19:17;96571.03;;;19.09;98.78
41703;BME280;861;48.808;9.006;2023-07-29T05:21:44;96570.44;;;19.14;97.82
41703;BME280;861;48.808;9.006;2023-07-29T05:24:11;96568.03;;;18.95;98.58
41703;BME280;861;48.808;9.006;2023-07-29T05:26:37;96567.56;;;18.66;100.00
41703;BME280;861;48.808;9.006;2023-07-29T05:29:04;96579.47;;;18.63;100.00
41703;BME280;861;48.808;9.006;2023-07-29T05:31:30;96580.56;;;18.31;100.00
41703;BME280;861;48.808;9.006;2023-07-29T05:33:57;96578.88;;;18.46;100.00
41703;BME280;861;48.808;9.006;2023-07-29T05:36:24;96582.66;;;18.61;100.00
41703;BME280;861;48.808;9.006;2023-07-29T05:38:52;96580.97;;;18.42;100.00
41703;BME280;861;48.808;9.006;2023-07-29T05:41:19;96583.66;;;18.33;100.00
41703;BME280;861;48.808;9.006;2023-07-29T05:43:46;96591.78;;;18.15;100.00
41703;BME280;861;48.808;9.006;2023-07-29T05:46:13;96591.47;;;18.34;100.00
41703;BME280;861;48.808;9.006;2023-07-29T05:48:39;96585.31;;;18.43;100.00
41703;BME280;861;48.808;9.006;2023-07-29T05:51:06;96580.69;;;18.62;100.00
41703;BME280;861;48.808;9.006;2023-07-29T05:53:33;96568.31;;;18.66;100.00
41703;BME280;861;48.808;9.006;2023-07-29T05:55:59;96579.22;;;18.70;100.00
41703;BME280;861;48.808;9.006;2023-07-29T05:58:26;96573.22;;;18.93;100.00
41703;BME280;861;48.808;9.006;2023-07-29T06:00:53;96563.28;;;18.95;100.00
41703;BME280;861;48.808;9.006;2023-07-29T06:03:19;96572.66;;;18.98;100.00
41703;BME280;861;48.808;9.006;2023-07-29T06:05:46;96575.59;;;19.03;100.00
41703;BME280;861;48.808;9.006;2023-07-29T06:08:12;96565.84;;;19.11;100.00
41703;BME280;861;48.808;9.006;2023-07-29T06:10:39;96569.84;;;19.19;100.00
41703;BME280;861;48.808;9.006;2023-07-29T06:13:06;96572.59;;;19.19;100.00
41703;BME280;861;48.808;9.006;2023-07-29T06:15:32;96583.63;;;19.19;100.00
41703;BME280;861;48.808;9.006;2023-07-29T06:17:59;96578.91;;;19.20;100.00
41703;BME280;861;48.808;9.006;2023-07-29T06:20:25;96575.88;;;19.27;100.00
41703;BME280;861;48.808;9.006;2023-07-29T06:22:52;96573.56;;;19.25;100.00
41703;BME280;861;48.808;9.006;2023-07-29T06:25:18;96574.47;;;19.22;100.00
41703;BME280;861;48.808;9.006;2023-07-29T06:27:45;96592.97;;;19.13;100.00
41703;BME280;861;48.808;9.006;2023-07-29T06:30:12;96593.53;;;18.99;100.00
41703;BME280;861;48.808;9.006;2023-07-29T06:32:38;96600.13;;;18.80;100.00
41703;BME280;861;48.808;9.006;2023-07-29T06:35:05;96595.56;;;18.86;100.00
41703;BME280;861;48.808;9.006;2023-07-29T06:37:32;96588.25;;;18.92;100.00
41703;BME280;861;48.808;9.006;2023-07-29T06:39:59;96600.81;;;18.93;100.00
41703;BME280;861;48.808;9.006;2023-07-29T06:42:26;96598.88;;;19.02;100.00
41703;BME280;861;48.808;9.006;2023-07-29T06:44:53;96599.16;;;18.95;100.00
41703;BME280;861;48.808;9.006;2023-07-29T06:47:19;96612.06;;;18.98;100.00
41703;BME280;861;48.808;9.006;2023-07-29T06:49:46;96611.56;;;18.91;100.00
41703;BME280;861;48.808;9.006;2023-07-29T06:52:13;96610.88;;;19.08;100.00
41703;BME280;861;48.808;9.006;2023-07-29T06:54:40;96608.06;;;18.99;100.00
41703;BME280;861;48.808;9.006;2023-07-29T06:57:06;96613.47;;;19.03;100.00
41703;BME280;861;48.808;9.006;2023-07-29T06:59:34;96615.63;;;18.86;100.00
41703;BME280;861;48.808;9.006;2023-07-29T07:02:01;96621.03;;;18.68;100.00
41703;BME280;861;48.808;9.006;2023-07-29T07:04:28;96638.63;;;18.83;100.00
41703;BME280;861;48.808;9.006;2023-07-29T07:06:54;96625.13;;;19.07;100.00
41703;BME280;861;48.808;9.006;2023-07-29T07:09:21;96620.25;;;19.11;100.00
41703;BME280;861;48.808;9.006;2023-07-29T07:11:47;96622.00;;;19.17;100.00
41703;BME280;861;48.808;9.006;2023-07-29T07:14:14;96614.91;;;19.16;100.00
41703;BME280;861;48.808;9.006;2023-07-29T07:16:41;96616.75;;;19.19;100.00
41703;BME280;861;48.808;9.006;2023-07-29T07:19:07;96610.00;;;19.42;100.00
41703;BME280;861;48.808;9.006;2023-07-29T07:21:34;96608.72;;;19.55;100.00
41703;BME280;861;48.808;9.006;2023-07-29T07:24:00;96621.63;;;19.67;100.00
41703;BME280;861;48.808;9.006;2023-07-29T07:26:27;96623.50;;;19.70;100.00
41703;BME280;861;48.808;9.006;2023-07-29T07:28:54;96621.63;;;19.58;100.00
41703;BME280;861;48.808;9.006;2023-07-29T07:31:21;96632.44;;;19.44;100.00
41703;BME280;861;48.808;9.006;2023-07-29T07:33:48;96626.41;;;19.36;100.00
41703;BME280;861;48.808;9.006;2023-07-29T07:36:15;96626.41;;;19.36;100.00
41703;BME280;861;48.808;9.006;2023-07-29T07:38:42;96618.97;;;19.55;100.00
41703;BME280;861;48.808;9.006;2023-07-29T07:41:08;96628.66;;;19.59;100.00
41703;BME280;861;48.808;9.006;2023-07-29T07:43:35;96623.84;;;19.82;100.00
41703;BME280;861;48.808;9.006;2023-07-29T07:46:02;96627.84;;;19.81;100.00
41703;BME280;861;48.808;9.006;2023-07-29T07:48:29;96623.91;;;20.00;100.00
41703;BME280;861;48.808;9.006;2023-07-29T07:50:56;96623.56;;;19.89;100.00
41703;BME280;861;48.808;9.006;2023-07-29T07:53:22;96615.94;;;20.11;100.00
41703;BME280;861;48.808;9.006;2023-07-29T07:55:51;96608.72;;;20.13;100.00
41703;BME280;861;48.808;9.006;2023-07-29T07:58:18;96604.00;;;20.32;100.00
41703;BME280;861;48.808;9.006;2023-07-29T08:00:45;96614.47;;;20.46;100.00
41703;BME280;861;48.808;9.006;2023-07-29T08:03:11;96617.25;;;20.55;100.00
41703;BME280;861;48.808;9.006;2023-07-29T08:05:38;96623.53;;;20.55;100.00
41703;BME280;861;48.808;9.006;2023-07-29T08:08:04;96625.84;;;20.75;100.00
41703;BME280;861;48.808;9.006;2023-07-29T08:10:31;96635.69;;;20.94;99.53
41703;BME280;861;48.808;9.006;2023-07-29T08:12:57;96644.72;;;21.21;95.00
41703;BME280;861;48.808;9.006;2023-07-29T08:15:24;96654.59;;;21.04;96.32
41703;BME280;861;48.808;9.006;2023-07-29T08:17:50;96661.69;;;20.78;97.25
41703;BME280;861;48.808;9.006;2023-07-29T08:20:17;96655.22;;;20.81;95.99
41703;BME280;861;48.808;9.006;2023-07-29T08:22:43;96651.69;;;20.72;96.81
41703;BME280;861;48.808;9.006;2023-07-29T08:25:10;96650.13;;;20.71;97.72
41703;BME280;861;48.808;9.006;2023-07-29T08:27:37;96647.22;;;20.74;97.30
41703;BME280;861;48.808;9.006;2023-07-29T08:30:04;96650.59;;;20.78;98.02
41703;BME280;861;48.808;9.006;2023-07-29T08:32:30;96655.03;;;20.85;96.48
41703;BME280;861;48.808;9.006;2023-07-29T08:34:57;96648.13;;;20.71;96.71
41703;BME280;861;48.808;9.006;2023-07-29T08:37:23;96652.44;;;20.90;96.29
41703;BME280;861;48.808;9.006;2023-07-29T08:39:50;96648.75;;;21.02;94.97
41703;BME280;861;48.808;9.006;2023-07-29T08:42:20;96654.28;;;21.20;95.27
41703;BME280;861;48.808;9.006;2023-07-29T08:44:53;96646.00;;;21.62;91.92
41703;BME280;861;48.808;9.006;2023-07-29T08:47:21;96644.13;;;21.77;92.20
41703;BME280;861;48.808;9.006;2023-07-29T08:49:51;96643.69;;;21.70;94.20
41703;BME280;861;48.808;9.006;2023-07-29T08:52:20;96653.69;;;21.67;91.07
41703;BME280;861;48.808;9.006;2023-07-29T08:54:51;96649.50;;;21.72;91.77
41703;BME280;861;48.808;9.006;2023-07-29T08:57:21;96647.66;;;21.69;91.76
41703;BME280;861;48.808;9.006;2023-07-29T08:59:48;96646.56;;;21.84;92.27
41703;BME280;861;48.808;9.006;2023-07-29T09:02:15;96647.25;;;21.61;92.18
41703;BME280;861;48.808;9.006;2023-07-29T09:04:42;96648.44;;;21.78;92.25
41703;BME280;861;48.808;9.006;2023-07-29T09:07:10;96635.63;;;22.13;88.44
41703;BME280;861;48.808;9.006;2023-07-29T09:09:38;96637.88;;;22.24;90.69
41703;BME280;861;48.808;9.006;2023-07-29T09:12:06;96634.56;;;22.82;87.20
41703;BME280;861;48.808;9.006;2023-07-29T09:14:33;96622.44;;;22.94;87.78
41703;BME280;861;48.808;9.006;2023-07-29T09:17:00;96624.69;;;22.81;85.73
41703;BME280;861;48.808;9.006;2023-07-29T09:19:27;96618.63;;;23.20;83.58
41703;BME280;861;48.808;9.006;2023-07-29T09:21:53;96615.81;;;23.06;86.65
41703;BME280;861;48.808;9.006;2023-07-29T09:24:22;96622.06;;;23.15;85.70
41703;BME280;861;48.808;9.006;2023-07-29T09:26:52;96623.19;;;23.09;84.87
41703;BME280;861;48.808;9.006;2023-07-29T09:29:23;96624.75;;;23.10;83.51
41703;BME280;861;48.808;9.006;2023-07-29T09:31:54;96622.56;;;23.28;80.14
41703;BME280;861;48.808;9.006;2023-07-29T09:34:45;96621.56;;;23.17;81.02
41703;BME280;861;48.808;9.006;2023-07-29T09:37:25;96631.88;;;23.25;80.59
41703;BME280;861;48.808;9.006;2023-07-29T09:39:53;96641.13;;;23.22;77.57
41703;BME280;861;48.808;9.006;2023-07-29T09:42:22;96641.25;;;22.75;80.24
41703;BME280;861;48.808;9.006;2023-07-29T09:44:51;96632.06;;;22.45;81.34
41703;BME280;861;48.808;9.006;2023-07-29T09:47:26;96640.03;;;22.52;81.61
41703;BME280;861;48.808;9.006;2023-07-29T09:49:53;96636.44;;;22.76;78.22
41703;BME280;861;48.808;9.006;2023-07-29T09:52:22;96645.00;;;22.87;79.16
41703;BME280;861;48.808;9.006;2023-07-29T09:54:49;96641.53;;;22.77;79.96
41703;BME280;861;48.808;9.006;2023-07-29T09:57:19;96643.72;;;22.73;80.49
41703;BME280;861;48.808;9.006;2023-07-29T09:59:57;96647.25;;;22.97;79.17
41703;BME280;861;48.808;9.006;2023-07-29T10:02:25;96636.59;;;23.10;79.28
41703;BME280;861;48.808;9.006;2023-07-29T10:04:56;96647.41;;;23.32;78.35
41703;BME280;861;48.808;9.006;2023-07-29T10:07:25;96634.22;;;23.90;72.73
41703;BME280;861;48.808;9.006;2023-07-29T10:09:55;96632.19;;;23.91;74.03
41703;BME280;861;48.808;9.006;2023-07-29T10:12:23;96640.19;;;23.54;75.83
41703;BME280;861;48.808;9.006;2023-07-29T10:14:51;96644.81;;;23.43;77.65
41703;BME280;861;48.808;9.006;2023-07-29T10:17:21;96661.47;;;23.28;79.19
41703;BME280;861;48.808;9.006;2023-07-29T10:19:50;96653.00;;;23.08;80.23
41703;BME280;861;48.808;9.006;2023-07-29T10:22:21;96656.22;;;22.92;80.72
41703;BME280;861;48.808;9.006;2023-07-29T10:24:54;96655.84;;;22.99;79.29
41703;BME280;861;48.808;9.006;2023-07-29T10:27:28;96664.63;;;22.83;79.03
41703;BME280;861;48.808;9.006;2023-07-29T10:29:57;96666.22;;;22.99;77.61
41703;BME280;861;48.808;9.006;2023-07-29T10:32:26;96662.63;;;22.84;78.74
41703;BME280;861;48.808;9.006;2023-07-29T10:34:54;96665.84;;;22.67;79.58
41703;BME280;861;48.808;9.006;2023-07-29T10:37:24;96658.41;;;22.88;78.34
41703;BME280;861;48.808;9.006;2023-07-29T10:39:55;96661.09;;;22.83;78.55
41703;BME280;861;48.808;9.006;2023-07-29T10:42:23;96661.91;;;22.74;80.28
41703;BME280;861;48.808;9.006;2023-07-29T10:44:53;96658.13;;;22.86;81.29
41703;BME280;861;48.808;9.006;2023-07-29T10:47:29;96657.84;;;23.37;81.32
41703;BME280;861;48.808;9.006;2023-07-29T10:49:58;96654.28;;;23.65;78.52
41703;BME280;861;48.808;9.006;2023-07-29T10:55:04;96640.22;;;24.38;75.35
41703;BME280;861;48.808;9.006;2023-07-29T10:57:50;96643.03;;;24.58;72.61
41703;BME280;861;48.808;9.006;2023-07-29T11:00:20;96649.25;;;24.33;74.16
41703;BME280;861;48.808;9.006;2023-07-29T11:03:03;96649.41;;;24.44;71.50
41703;BME280;861;48.808;9.006;2023-07-29T11:05:53;96657.75;;;24.44;72.02
41703;BME280;861;48.808;9.006;2023-07-29T11:08:31;96647.88;;;24.63;73.15
41703;BME280;861;48.808;9.006;2023-07-29T11:11:01;96659.13;;;24.69;71.93
41703;BME280;861;48.808;9.006;2023-07-29T11:13:36;96657.00;;;24.64;68.50
41703;BME280;861;48.808;9.006;2023-07-29T11:16:05;96657.50;;;24.42;69.17
41703;BME280;861;48.808;9.006;2023-07-29T11:18:36;96646.13;;;24.26;71.93
41703;BME280;861;48.808;9.006;2023-07-29T11:21:04;96646.66;;;24.09;70.82
41703;BME280;861;48.808;9.006;2023-07-29T11:23:35;96649.88;;;24.23;71.22
41703;BME280;861;48.808;9.006;2023-07-29T11:26:04;96639.88;;;24.31;71.20
41703;BME280;861;48.808;9.006;2023-07-29T11:28:37;96647.81;;;24.38;71.98
41703;BME280;861;48.808;9.006;2023-07-29T11:31:04;96643.25;;;24.55;70.22
41703;BME280;861;48.808;9.006;2023-07-29T11:33:31;96627.34;;;24.61;69.50
41703;BME280;861;48.808;9.006;2023-07-29T11:35:58;96617.59;;;24.51;67.90
41703;BME280;861;48.808;9.006;2023-07-29T11:38:25;96632.31;;;24.71;67.43
41703;BME280;861;48.808;9.006;2023-07-29T11:41:01;96641.16;;;24.70;68.34
41703;BME280;861;48.808;9.006;2023-07-29T11:43:36;96646.38;;;24.42;70.48
41703;BME280;861;48.808;9.006;2023-07-29T11:46:03;96648.91;;;24.46;71.79
41703;BME280;861;48.808;9.006;2023-07-29T11:48:34;96637.34;;;24.67;71.76
41703;BME280;861;48.808;9.006;2023-07-29T11:51:02;96639.63;;;24.89;68.71
41703;BME280;861;48.808;9.006;2023-07-29T11:53:30;96635.34;;;25.13;67.39
41703;BME280;861;48.808;9.006;2023-07-29T11:55:58;96631.78;;;25.13;70.31
41703;BME280;861;48.808;9.006;2023-07-29T11:58:25;96634.47;;;25.53;66.87
41703;BME280;861;48.808;9.006;2023-07-29T12:00:52;96630.53;;;25.65;66.82
41703;BME280;861;48.808;9.006;2023-07-29T12:03:20;96634.22;;;25.88;62.83
41703;BME280;861;48.808;9.006;2023-07-29T12:05:48;96634.56;;;25.64;66.22
41703;BME280;861;48.808;9.006;2023-07-29T12:08:15;96618.91;;;25.72;62.30
41703;BME280;861;48.808;9.006;2023-07-29T12:10:43;96613.47;;;25.89;60.80
41703;BME280;861;48.808;9.006;2023-07-29T12:13:10;96623.00;;;25.77;63.34
41703;BME280;861;48.808;9.006;2023-07-29T12:15:39;96632.66;;;26.12;57.57
41703;BME280;861;48.808;9.006;2023-07-29T12:18:06;96620.50;;;26.15;59.16
41703;BME280;861;48.808;9.006;2023-07-29T12:20:33;96621.50;;;26.12;59.79
41703;BME280;861;48.808;9.006;2023-07-29T12:23:01;96620.66;;;26.01;59.65
41703;BME280;861;48.808;9.006;2023-07-29T12:25:30;96613.41;;;25.83;59.77
41703;BME280;861;48.808;9.006;2023-07-29T12:27:56;96619.72;;;26.15;55.36
41703;BME280;861;48.808;9.006;2023-07-29T12:30:30;96629.16;;;26.17;56.79
41703;BME280;861;48.808;9.006;2023-07-29T12:32:57;96633.41;;;26.13;55.05
41703;BME280;861;48.808;9.006;2023-07-29T12:35:24;96638.84;;;26.27;56.02
41703;BME280;861;48.808;9.006;2023-07-29T12:38:00;96622.25;;;26.13;56.04
41703;BME280;861;48.808;9.006;2023-07-29T12:40:28;96620.50;;;26.15;56.78
41703;BME280;861;48.808;9.006;2023-07-29T12:42:55;96621.88;;;26.31;56.07
41703;BME280;861;48.808;9.006;2023-07-29T12:45:22;96616.88;;;26.51;57.58
41703;BME280;861;48.808;9.006;2023-07-29T12:47:52;96621.94;;;27.00;54.43
41703;BME280;861;48.808;9.006;2023-07-29T12:50:19;96608.03;;;27.50;53.17
41703;BME280;861;48.808;9.006;2023-07-29T12:52:45;96622.78;;;27.67;52.21
41703;BME280;861;48.808;9.006;2023-07-29T12:55:12;96618.22;;;27.48;53.14
41703;BME280;861;48.808;9.006;2023-07-29T12:57:42;96611.84;;;27.31;52.94
41703;BME280;861;48.808;9.006;2023-07-29T13:00:10;96609.84;;;27.48;52.73
41703;BME280;861;48.808;9.006;2023-07-29T13:02:37;96610.34;;;27.46;52.65
41703;BME280;861;48.808;9.006;2023-07-29T13:05:05;96611.34;;;27.32;54.19
41703;BME280;861;48.808;9.006;2023-07-29T13:07:32;96610.84;;;27.56;53.32
41703;BME280;861;48.808;9.006;2023-07-29T13:09:58;96601.94;;;27.79;51.21
41703;BME280;861;48.808;9.006;2023-07-29T13:12:26;96590.75;;;27.74;51.68
41703;BME280;861;48.808;9.006;2023-07-29T13:14:52;96606.28;;;27.91;51.65
41703;BME280;861;48.808;9.006;2023-07-29T13:17:19;96595.06;;;27.69;50.21
41703;BME280;861;48.808;9.006;2023-07-29T13:19:47;96608.06;;;27.67;52.63
41703;BME280;861;48.808;9.006;2023-07-29T13:22:13;96604.22;;;27.81;53.72
41703;BME280;861;48.808;9.006;2023-07-29T13:24:40;96610.63;;;27.92;51.00
41703;BME280;861;48.808;9.006;2023-07-29T13:27:07;96612.91;;;27.94;48.62
41703;BME280;861;48.808;9.006;2023-07-29T13:29:33;96617.72;;;27.49;53.14